sensor_id;sensor_type;location;lat;lon;timestamp;P1;durP1;ratioP1;P2;durP2;ratioP2
32812;SDS011;19162;48.254;11.454;2023-09-19T00:01:19;1.77;;;1.40;;
32812;SDS011;19162;48.254;11.454;2023-09-19T00:04:20;2.92;;;1.15;;
32812;SDS011;19162;48.254;11.454;2023-09-19T00:07:23;1.52;;;1.10;;
32812;SDS011;19162;48.254;11.454;2023-09-19T00:10:25;2.65;;;1.40;;
32812;SDS011;19162;48.254;11.454;2023-09-19T00:13:26;2.40;;;1.52;;
32812;SDS011;19162;48.254;11.454;2023-09-19T00:16:28;1.25;;;1.00;;
32812;SDS011;19162;48.254;11.454;2023-09-19T00:19:29;1.65;;;1.25;;
32812;SDS011;19162;48.254;11.454;2023-09-19T00:22:29;1.42;;;1.08;;
32812;SDS011;19162;48.254;11.454;2023-09-19T00:25:29;1.27;;;1.20;;
32812;SDS011;19162;48.254;11.454;2023-09-19T00:28:30;5.33;;;1.40;;
32812;SDS011;19162;48.254;11.454;2023-09-19T00:31:31;2.35;;;1.40;;
32812;SDS011;19162;48.254;11.454;2023-09-19T00:34:32;2.92;;;1.77;;
32812;SDS011;19162;48.254;11.454;2023-09-19T00:37:34;2.28;;;0.93;;
32812;SDS011;19162;48.254;11.454;2023-09-19T00:40:34;1.93;;;1.33;;
32812;SDS011;19162;48.254;11.454;2023-09-19T00:43:35;1.73;;;1.30;;
32812;SDS011;19162;48.254;11.454;2023-09-19T00:46:35;1.35;;;1.25;;
32812;SDS011;19162;48.254;11.454;2023-09-19T00:49:36;1.77;;;1.20;;
32812;SDS011;19162;48.254;11.454;2023-09-19T00:52:38;1.40;;;1.30;;
32812;SDS011;19162;48.254;11.454;2023-09-19T00:55:38;2.55;;;1.60;;
32812;SDS011;19162;48.254;11.454;2023-09-19T00:58:39;3.20;;;1.60;;
32812;SDS011;19162;48.254;11.454;2023-09-19T01:01:40;1.27;;;1.10;;
32812;SDS011;19162;48.254;11.454;2023-09-19T01:04:40;1.70;;;1.17;;
32812;SDS011;19162;48.254;11.454;2023-09-19T01:07:41;3.67;;;1.23;;
32812;SDS011;19162;48.254;11.454;2023-09-19T01:10:46;1.75;;;1.15;;
32812;SDS011;19162;48.254;11.454;2023-09-19T01:13:58;3.88;;;2.05;;
32812;SDS011;19162;48.254;11.454;2023-09-19T01:17:05;2.28;;;1.30;;
32812;SDS011;19162;48.254;11.454;2023-09-19T01:20:11;3.13;;;1.55;;
32812;SDS011;19162;48.254;11.454;2023-09-19T01:23:23;2.65;;;1.38;;
32812;SDS011;19162;48.254;11.454;2023-09-19T01:29:49;1.85;;;1.40;;
32812;SDS011;19162;48.254;11.454;2023-09-19T01:32:50;1.52;;;1.08;;
32812;SDS011;19162;48.254;11.454;2023-09-19T01:35:52;2.28;;;1.30;;
32812;SDS011;19162;48.254;11.454;2023-09-19T01:38:55;3.03;;;1.70;;
32812;SDS011;19162;48.254;11.454;2023-09-19T01:42:12;2.57;;;1.30;;
32812;SDS011;19162;48.254;11.454;2023-09-19T01:51:28;1.73;;;1.35;;
32812;SDS011;19162;48.254;11.454;2023-09-19T01:54:33;1.40;;;1.30;;
32812;SDS011;19162;48.254;11.454;2023-09-19T01:57:42;6.10;;;1.65;;
32812;SDS011;19162;48.254;11.454;2023-09-19T02:00:45;1.13;;;1.00;;
32812;SDS011;19162;48.254;11.454;2023-09-19T02:06:48;2.23;;;1.30;;
32812;SDS011;19162;48.254;11.454;2023-09-19T02:09:48;1.48;;;1.38;;
32812;SDS011;19162;48.254;11.454;2023-09-19T02:12:49;1.63;;;1.08;;
32812;SDS011;19162;48.254;11.454;2023-09-19T02:15:49;1.55;;;1.42;;
32812;SDS011;19162;48.254;11.454;2023-09-19T02:18:49;2.65;;;1.27;;
32812;SDS011;19162;48.254;11.454;2023-09-19T02:21:50;1.88;;;1.40;;
32812;SDS011;19162;48.254;11.454;2023-09-19T02:24:50;1.25;;;1.15;;
32812;SDS011;19162;48.254;11.454;2023-09-19T02:27:51;2.63;;;1.23;;
32812;SDS011;19162;48.254;11.454;2023-09-19T02:30:51;2.28;;;1.58;;
32812;SDS011;19162;48.254;11.454;2023-09-19T02:33:51;2.30;;;1.33;;
32812;SDS011;19162;48.254;11.454;2023-09-19T02:36:51;4.28;;;1.52;;
32812;SDS011;19162;48.254;11.454;2023-09-19T02:39:56;2.58;;;1.45;;
32812;SDS011;19162;48.254;11.454;2023-09-19T02:42:56;1.73;;;1.40;;
32812;SDS011;19162;48.254;11.454;2023-09-19T02:45:58;2.30;;;1.58;;
32812;SDS011;19162;48.254;11.454;2023-09-19T02:48:58;3.13;;;1.33;;
32812;SDS011;19162;48.254;11.454;2023-09-19T02:51:59;2.63;;;1.47;;
32812;SDS011;19162;48.254;11.454;2023-09-19T02:54:59;2.17;;;1.60;;
32812;SDS011;19162;48.254;11.454;2023-09-19T02:58:01;3.03;;;1.30;;
32812;SDS011;19162;48.254;11.454;2023-09-19T03:01:08;1.15;;;1.05;;
32812;SDS011;19162;48.254;11.454;2023-09-19T03:04:08;1.50;;;1.27;;
32812;SDS011;19162;48.254;11.454;2023-09-19T03:07:11;1.55;;;1.15;;
32812;SDS011;19162;48.254;11.454;2023-09-19T03:10:11;2.78;;;1.52;;
32812;SDS011;19162;48.254;11.454;2023-09-19T03:13:12;1.37;;;1.23;;
32812;SDS011;19162;48.254;11.454;2023-09-19T03:16:12;2.15;;;1.35;;
32812;SDS011;19162;48.254;11.454;2023-09-19T03:19:14;1.48;;;1.38;;
32812;SDS011;19162;48.254;11.454;2023-09-19T03:22:15;2.27;;;1.70;;
32812;SDS011;19162;48.254;11.454;2023-09-19T03:25:15;2.10;;;1.75;;
32812;SDS011;19162;48.254;11.454;2023-09-19T03:28:17;2.50;;;1.85;;
32812;SDS011;19162;48.254;11.454;2023-09-19T03:31:17;1.83;;;1.50;;
32812;SDS011;19162;48.254;11.454;2023-09-19T03:34:18;2.57;;;2.17;;
32812;SDS011;19162;48.254;11.454;2023-09-19T03:37:19;2.10;;;1.90;;
32812;SDS011;19162;48.254;11.454;2023-09-19T03:40:19;2.10;;;1.90;;
32812;SDS011;19162;48.254;11.454;2023-09-19T03:43:21;2.33;;;2.10;;
32812;SDS011;19162;48.254;11.454;2023-09-19T03:46:21;2.63;;;1.93;;
32812;SDS011;19162;48.254;11.454;2023-09-19T03:49:22;2.40;;;2.20;;
32812;SDS011;19162;48.254;11.454;2023-09-19T03:52:22;2.97;;;2.58;;
32812;SDS011;19162;48.254;11.454;2023-09-19T03:55:23;2.03;;;1.80;;
32812;SDS011;19162;48.254;11.454;2023-09-19T03:58:24;2.97;;;2.00;;
32812;SDS011;19162;48.254;11.454;2023-09-19T04:01:24;1.80;;;1.70;;
32812;SDS011;19162;48.254;11.454;2023-09-19T04:04:24;3.17;;;1.98;;
32812;SDS011;19162;48.254;11.454;2023-09-19T04:07:25;3.10;;;1.87;;
32812;SDS011;19162;48.254;11.454;2023-09-19T04:10:28;2.53;;;1.70;;
32812;SDS011;19162;48.254;11.454;2023-09-19T04:13:29;2.38;;;2.17;;
32812;SDS011;19162;48.254;11.454;2023-09-19T04:16:29;3.63;;;2.20;;
32812;SDS011;19162;48.254;11.454;2023-09-19T04:19:30;2.97;;;2.05;;
32812;SDS011;19162;48.254;11.454;2023-09-19T04:22:30;2.53;;;1.70;;
32812;SDS011;19162;48.254;11.454;2023-09-19T04:25:30;5.68;;;2.00;;
32812;SDS011;19162;48.254;11.454;2023-09-19T04:28:31;1.97;;;1.60;;
32812;SDS011;19162;48.254;11.454;2023-09-19T04:31:31;6.70;;;1.40;;
32812;SDS011;19162;48.254;11.454;2023-09-19T04:34:32;2.03;;;1.40;;
32812;SDS011;19162;48.254;11.454;2023-09-19T04:37:32;3.10;;;1.80;;
32812;SDS011;19162;48.254;11.454;2023-09-19T04:40:33;2.47;;;1.40;;
32812;SDS011;19162;48.254;11.454;2023-09-19T04:43:33;5.18;;;1.77;;
32812;SDS011;19162;48.254;11.454;2023-09-19T04:46:34;3.08;;;1.50;;
32812;SDS011;19162;48.254;11.454;2023-09-19T04:49:34;2.00;;;1.80;;
32812;SDS011;19162;48.254;11.454;2023-09-19T04:52:35;2.00;;;1.80;;
32812;SDS011;19162;48.254;11.454;2023-09-19T04:55:35;1.87;;;1.57;;
32812;SDS011;19162;48.254;11.454;2023-09-19T04:58:36;1.27;;;1.17;;
32812;SDS011;19162;48.254;11.454;2023-09-19T05:01:36;2.40;;;1.55;;
32812;SDS011;19162;48.254;11.454;2023-09-19T05:04:36;3.80;;;1.42;;
32812;SDS011;19162;48.254;11.454;2023-09-19T05:07:38;2.22;;;1.33;;
32812;SDS011;19162;48.254;11.454;2023-09-19T05:10:38;1.80;;;1.42;;
32812;SDS011;19162;48.254;11.454;2023-09-19T05:13:39;1.42;;;1.30;;
32812;SDS011;19162;48.254;11.454;2023-09-19T05:16:39;2.73;;;1.30;;
32812;SDS011;19162;48.254;11.454;2023-09-19T05:19:40;3.13;;;1.60;;
32812;SDS011;19162;48.254;11.454;2023-09-19T05:22:43;1.53;;;1.20;;
32812;SDS011;19162;48.254;11.454;2023-09-19T05:25:44;2.80;;;1.83;;
32812;SDS011;19162;48.254;11.454;2023-09-19T05:28:44;1.70;;;1.60;;
32812;SDS011;19162;48.254;11.454;2023-09-19T05:31:44;1.77;;;1.10;;
32812;SDS011;19162;48.254;11.454;2023-09-19T05:34:45;1.92;;;1.50;;
32812;SDS011;19162;48.254;11.454;2023-09-19T05:37:45;3.10;;;1.30;;
32812;SDS011;19162;48.254;11.454;2023-09-19T05:40:46;2.33;;;1.15;;
32812;SDS011;19162;48.254;11.454;2023-09-19T05:43:46;1.90;;;1.40;;
32812;SDS011;19162;48.254;11.454;2023-09-19T05:46:49;1.80;;;1.25;;
32812;SDS011;19162;48.254;11.454;2023-09-19T05:49:50;1.17;;;1.08;;
32812;SDS011;19162;48.254;11.454;2023-09-19T05:52:54;1.90;;;1.27;;
32812;SDS011;19162;48.254;11.454;2023-09-19T05:55:55;2.20;;;1.40;;
32812;SDS011;19162;48.254;11.454;2023-09-19T05:58:56;2.58;;;1.48;;
32812;SDS011;19162;48.254;11.454;2023-09-19T06:01:56;2.67;;;1.40;;
32812;SDS011;19162;48.254;11.454;2023-09-19T06:04:56;1.48;;;1.27;;
32812;SDS011;19162;48.254;11.454;2023-09-19T06:07:56;1.77;;;1.33;;
32812;SDS011;19162;48.254;11.454;2023-09-19T06:11:00;5.63;;;1.67;;
32812;SDS011;19162;48.254;11.454;2023-09-19T06:14:03;3.45;;;1.50;;
32812;SDS011;19162;48.254;11.454;2023-09-19T06:17:03;2.83;;;1.55;;
32812;SDS011;19162;48.254;11.454;2023-09-19T06:20:05;1.67;;;1.15;;
32812;SDS011;19162;48.254;11.454;2023-09-19T06:23:09;2.03;;;1.48;;
32812;SDS011;19162;48.254;11.454;2023-09-19T06:26:10;2.40;;;1.17;;
32812;SDS011;19162;48.254;11.454;2023-09-19T06:29:10;1.33;;;1.10;;
32812;SDS011;19162;48.254;11.454;2023-09-19T06:32:10;2.15;;;0.90;;
32812;SDS011;19162;48.254;11.454;2023-09-19T06:35:11;5.23;;;2.17;;
32812;SDS011;19162;48.254;11.454;2023-09-19T06:38:11;1.73;;;1.02;;
32812;SDS011;19162;48.254;11.454;2023-09-19T06:41:13;1.60;;;1.20;;
32812;SDS011;19162;48.254;11.454;2023-09-19T06:44:13;1.40;;;1.10;;
32812;SDS011;19162;48.254;11.454;2023-09-19T06:47:13;2.92;;;1.25;;
32812;SDS011;19162;48.254;11.454;2023-09-19T06:50:14;1.85;;;1.38;;
32812;SDS011;19162;48.254;11.454;2023-09-19T06:53:14;1.48;;;1.10;;
32812;SDS011;19162;48.254;11.454;2023-09-19T06:56:14;1.20;;;0.97;;
32812;SDS011;19162;48.254;11.454;2023-09-19T06:59:15;2.38;;;1.10;;
32812;SDS011;19162;48.254;11.454;2023-09-19T07:02:16;1.80;;;1.10;;
32812;SDS011;19162;48.254;11.454;2023-09-19T07:05:16;3.00;;;1.13;;
32812;SDS011;19162;48.254;11.454;2023-09-19T07:08:18;3.47;;;1.03;;
32812;SDS011;19162;48.254;11.454;2023-09-19T07:11:19;2.22;;;1.20;;
32812;SDS011;19162;48.254;11.454;2023-09-19T07:14:21;1.33;;;1.00;;
32812;SDS011;19162;48.254;11.454;2023-09-19T07:17:21;1.80;;;0.93;;
32812;SDS011;19162;48.254;11.454;2023-09-19T07:20:24;1.83;;;1.20;;
32812;SDS011;19162;48.254;11.454;2023-09-19T07:26:27;1.05;;;0.90;;
32812;SDS011;19162;48.254;11.454;2023-09-19T07:29:28;2.63;;;0.98;;
32812;SDS011;19162;48.254;11.454;2023-09-19T07:32:28;2.83;;;1.15;;
32812;SDS011;19162;48.254;11.454;2023-09-19T07:35:28;1.40;;;0.75;;
32812;SDS011;19162;48.254;11.454;2023-09-19T07:38:28;2.38;;;1.17;;
32812;SDS011;19162;48.254;11.454;2023-09-19T07:41:28;1.27;;;0.87;;
32812;SDS011;19162;48.254;11.454;2023-09-19T07:44:30;1.38;;;1.00;;
32812;SDS011;19162;48.254;11.454;2023-09-19T07:47:31;2.70;;;0.95;;
32812;SDS011;19162;48.254;11.454;2023-09-19T07:50:33;2.75;;;1.20;;
32812;SDS011;19162;48.254;11.454;2023-09-19T07:53:34;1.43;;;0.97;;
32812;SDS011;19162;48.254;11.454;2023-09-19T07:56:35;1.30;;;0.80;;
32812;SDS011;19162;48.254;11.454;2023-09-19T07:59:35;2.97;;;1.23;;
32812;SDS011;19162;48.254;11.454;2023-09-19T08:02:36;2.58;;;1.10;;
32812;SDS011;19162;48.254;11.454;2023-09-19T08:05:40;1.10;;;1.00;;
32812;SDS011;19162;48.254;11.454;2023-09-19T08:08:43;1.98;;;0.73;;
32812;SDS011;19162;48.254;11.454;2023-09-19T08:11:43;1.67;;;1.03;;
32812;SDS011;19162;48.254;11.454;2023-09-19T08:14:45;1.90;;;0.93;;
32812;SDS011;19162;48.254;11.454;2023-09-19T08:17:47;3.00;;;0.95;;
32812;SDS011;19162;48.254;11.454;2023-09-19T08:20:51;8.23;;;0.90;;
32812;SDS011;19162;48.254;11.454;2023-09-19T08:23:52;1.20;;;1.10;;
32812;SDS011;19162;48.254;11.454;2023-09-19T08:26:52;0.77;;;0.70;;
32812;SDS011;19162;48.254;11.454;2023-09-19T08:29:54;1.42;;;1.33;;
32812;SDS011;19162;48.254;11.454;2023-09-19T08:32:57;1.07;;;0.97;;
32812;SDS011;19162;48.254;11.454;2023-09-19T08:36:01;0.73;;;0.73;;
32812;SDS011;19162;48.254;11.454;2023-09-19T08:39:01;2.00;;;1.10;;
32812;SDS011;19162;48.254;11.454;2023-09-19T08:42:01;1.10;;;0.97;;
32812;SDS011;19162;48.254;11.454;2023-09-19T08:45:01;1.77;;;1.42;;
32812;SDS011;19162;48.254;11.454;2023-09-19T08:51:06;1.20;;;0.95;;
32812;SDS011;19162;48.254;11.454;2023-09-19T08:54:07;0.75;;;0.75;;
32812;SDS011;19162;48.254;11.454;2023-09-19T08:57:07;2.67;;;0.80;;
32812;SDS011;19162;48.254;11.454;2023-09-19T09:00:11;1.20;;;0.95;;
32812;SDS011;19162;48.254;11.454;2023-09-19T09:03:14;0.80;;;0.80;;
32812;SDS011;19162;48.254;11.454;2023-09-19T09:06:16;2.22;;;0.90;;
32812;SDS011;19162;48.254;11.454;2023-09-19T09:09:17;1.83;;;1.05;;
32812;SDS011;19162;48.254;11.454;2023-09-19T09:12:17;2.37;;;1.00;;
32812;SDS011;19162;48.254;11.454;2023-09-19T09:15:21;0.90;;;0.90;;
32812;SDS011;19162;48.254;11.454;2023-09-19T09:18:23;0.98;;;0.80;;
32812;SDS011;19162;48.254;11.454;2023-09-19T09:21:26;1.30;;;0.90;;
32812;SDS011;19162;48.254;11.454;2023-09-19T09:24:27;0.70;;;0.70;;
32812;SDS011;19162;48.254;11.454;2023-09-19T09:27:30;1.15;;;0.80;;
32812;SDS011;19162;48.254;11.454;2023-09-19T09:30:33;0.70;;;0.68;;
32812;SDS011;19162;48.254;11.454;2023-09-19T09:33:34;1.73;;;0.90;;
32812;SDS011;19162;48.254;11.454;2023-09-19T09:36:35;1.35;;;0.90;;
32812;SDS011;19162;48.254;11.454;2023-09-19T09:39:36;1.23;;;0.98;;
32812;SDS011;19162;48.254;11.454;2023-09-19T09:42:36;1.08;;;0.98;;
32812;SDS011;19162;48.254;11.454;2023-09-19T09:45:39;1.38;;;0.98;;
32812;SDS011;19162;48.254;11.454;2023-09-19T09:48:55;1.05;;;0.70;;
32812;SDS011;19162;48.254;11.454;2023-09-19T09:52:14;2.58;;;0.77;;
32812;SDS011;19162;48.254;11.454;2023-09-19T09:55:17;3.13;;;0.93;;
32812;SDS011;19162;48.254;11.454;2023-09-19T09:58:20;1.83;;;1.00;;
32812;SDS011;19162;48.254;11.454;2023-09-19T10:01:24;1.05;;;0.90;;
32812;SDS011;19162;48.254;11.454;2023-09-19T10:04:27;2.33;;;1.00;;
32812;SDS011;19162;48.254;11.454;2023-09-19T10:10:33;2.15;;;0.90;;
32812;SDS011;19162;48.254;11.454;2023-09-19T10:13:42;1.63;;;1.00;;
32812;SDS011;19162;48.254;11.454;2023-09-19T10:16:47;0.82;;;0.80;;
32812;SDS011;19162;48.254;11.454;2023-09-19T10:19:56;1.23;;;1.10;;
32812;SDS011;19162;48.254;11.454;2023-09-19T10:22:59;1.38;;;1.15;;
32812;SDS011;19162;48.254;11.454;2023-09-19T10:25:59;1.40;;;1.13;;
32812;SDS011;19162;48.254;11.454;2023-09-19T10:29:01;1.90;;;1.10;;
32812;SDS011;19162;48.254;11.454;2023-09-19T10:32:04;1.52;;;1.30;;
32812;SDS011;19162;48.254;11.454;2023-09-19T10:35:08;2.65;;;1.15;;
32812;SDS011;19162;48.254;11.454;2023-09-19T10:38:13;1.08;;;0.98;;
32812;SDS011;19162;48.254;11.454;2023-09-19T10:41:14;4.43;;;1.20;;
32812;SDS011;19162;48.254;11.454;2023-09-19T10:44:16;1.05;;;0.82;;
32812;SDS011;19162;48.254;11.454;2023-09-19T10:47:19;1.02;;;0.90;;
32812;SDS011;19162;48.254;11.454;2023-09-19T10:50:20;0.90;;;0.80;;
32812;SDS011;19162;48.254;11.454;2023-09-19T10:53:23;1.33;;;0.82;;
32812;SDS011;19162;48.254;11.454;2023-09-19T10:56:29;2.03;;;0.93;;
32812;SDS011;19162;48.254;11.454;2023-09-19T10:59:32;1.00;;;0.80;;
32812;SDS011;19162;48.254;11.454;2023-09-19T11:02:34;0.88;;;0.88;;
32812;SDS011;19162;48.254;11.454;2023-09-19T11:05:35;2.25;;;1.00;;
32812;SDS011;19162;48.254;11.454;2023-09-19T11:11:56;1.40;;;1.00;;
32812;SDS011;19162;48.254;11.454;2023-09-19T11:14:57;1.55;;;1.00;;
32812;SDS011;19162;48.254;11.454;2023-09-19T11:17:58;2.83;;;1.00;;
32812;SDS011;19162;48.254;11.454;2023-09-19T11:27:22;1.20;;;1.10;;
32812;SDS011;19162;48.254;11.454;2023-09-19T11:30:27;1.00;;;1.00;;
32812;SDS011;19162;48.254;11.454;2023-09-19T11:33:28;1.17;;;0.95;;
32812;SDS011;19162;48.254;11.454;2023-09-19T11:36:37;2.28;;;0.80;;
32812;SDS011;19162;48.254;11.454;2023-09-19T11:39:38;1.13;;;1.02;;
32812;SDS011;19162;48.254;11.454;2023-09-19T11:42:42;1.00;;;0.80;;
32812;SDS011;19162;48.254;11.454;2023-09-19T11:48:46;2.47;;;1.02;;
32812;SDS011;19162;48.254;11.454;2023-09-19T11:51:47;2.08;;;1.17;;
32812;SDS011;19162;48.254;11.454;2023-09-19T11:57:54;1.58;;;0.90;;
32812;SDS011;19162;48.254;11.454;2023-09-19T12:00:55;1.77;;;1.02;;
32812;SDS011;19162;48.254;11.454;2023-09-19T12:03:59;0.77;;;0.75;;
32812;SDS011;19162;48.254;11.454;2023-09-19T12:06:59;2.72;;;1.20;;
32812;SDS011;19162;48.254;11.454;2023-09-19T12:10:03;1.73;;;1.13;;
32812;SDS011;19162;48.254;11.454;2023-09-19T12:13:04;2.45;;;1.00;;
32812;SDS011;19162;48.254;11.454;2023-09-19T12:16:13;2.47;;;1.13;;
32812;SDS011;19162;48.254;11.454;2023-09-19T12:19:18;2.17;;;1.00;;
32812;SDS011;19162;48.254;11.454;2023-09-19T12:22:22;0.90;;;0.90;;
32812;SDS011;19162;48.254;11.454;2023-09-19T12:25:22;0.82;;;0.80;;
32812;SDS011;19162;48.254;11.454;2023-09-19T12:28:26;1.85;;;1.17;;
32812;SDS011;19162;48.254;11.454;2023-09-19T12:31:26;1.13;;;1.02;;
32812;SDS011;19162;48.254;11.454;2023-09-19T12:34:27;2.13;;;1.10;;
32812;SDS011;19162;48.254;11.454;2023-09-19T12:37:28;1.48;;;0.90;;
32812;SDS011;19162;48.254;11.454;2023-09-19T12:40:29;1.92;;;0.93;;
32812;SDS011;19162;48.254;11.454;2023-09-19T12:43:33;2.78;;;1.08;;
32812;SDS011;19162;48.254;11.454;2023-09-19T12:46:33;1.02;;;1.00;;
32812;SDS011;19162;48.254;11.454;2023-09-19T12:49:33;1.92;;;1.08;;
32812;SDS011;19162;48.254;11.454;2023-09-19T12:52:34;1.97;;;1.00;;
32812;SDS011;19162;48.254;11.454;2023-09-19T12:55:36;1.23;;;1.05;;
32812;SDS011;19162;48.254;11.454;2023-09-19T12:58:51;0.90;;;0.80;;
32812;SDS011;19162;48.254;11.454;2023-09-19T13:01:52;1.75;;;1.00;;
32812;SDS011;19162;48.254;11.454;2023-09-19T13:05:03;1.67;;;1.13;;
32812;SDS011;19162;48.254;11.454;2023-09-19T13:08:28;1.88;;;0.80;;
32812;SDS011;19162;48.254;11.454;2023-09-19T13:11:35;2.72;;;1.00;;
32812;SDS011;19162;48.254;11.454;2023-09-19T13:14:38;1.15;;;1.05;;
32812;SDS011;19162;48.254;11.454;2023-09-19T13:17:43;1.00;;;0.90;;
32812;SDS011;19162;48.254;11.454;2023-09-19T13:20:44;1.83;;;1.10;;
32812;SDS011;19162;48.254;11.454;2023-09-19T13:24:20;2.83;;;1.00;;
32812;SDS011;19162;48.254;11.454;2023-09-19T13:27:20;2.13;;;1.27;;
32812;SDS011;19162;48.254;11.454;2023-09-19T13:30:25;1.20;;;1.10;;
32812;SDS011;19162;48.254;11.454;2023-09-19T13:33:25;1.73;;;1.13;;
32812;SDS011;19162;48.254;11.454;2023-09-19T13:36:26;1.10;;;0.98;;
32812;SDS011;19162;48.254;11.454;2023-09-19T13:39:26;2.17;;;0.93;;
32812;SDS011;19162;48.254;11.454;2023-09-19T13:42:26;1.20;;;1.10;;
32812;SDS011;19162;48.254;11.454;2023-09-19T13:45:29;1.35;;;1.10;;
32812;SDS011;19162;48.254;11.454;2023-09-19T13:48:30;1.25;;;1.15;;
32812;SDS011;19162;48.254;11.454;2023-09-19T13:51:31;1.50;;;0.90;;
32812;SDS011;19162;48.254;11.454;2023-09-19T13:54:31;1.40;;;1.30;;
32812;SDS011;19162;48.254;11.454;2023-09-19T13:57:31;1.35;;;1.25;;
32812;SDS011;19162;48.254;11.454;2023-09-19T14:00:33;2.20;;;1.13;;
32812;SDS011;19162;48.254;11.454;2023-09-19T14:03:36;1.92;;;1.20;;
32812;SDS011;19162;48.254;11.454;2023-09-19T14:06:36;2.25;;;1.10;;
32812;SDS011;19162;48.254;11.454;2023-09-19T14:09:37;1.67;;;1.40;;
32812;SDS011;19162;48.254;11.454;2023-09-19T14:12:38;4.07;;;1.30;;
32812;SDS011;19162;48.254;11.454;2023-09-19T14:18:42;1.75;;;0.88;;
32812;SDS011;19162;48.254;11.454;2023-09-19T14:21:42;3.80;;;1.17;;
32812;SDS011;19162;48.254;11.454;2023-09-19T14:24:42;1.25;;;0.80;;
32812;SDS011;19162;48.254;11.454;2023-09-19T14:27:43;1.30;;;1.20;;
32812;SDS011;19162;48.254;11.454;2023-09-19T14:30:44;0.95;;;0.85;;
32812;SDS011;19162;48.254;11.454;2023-09-19T14:33:44;1.27;;;1.15;;
32812;SDS011;19162;48.254;11.454;2023-09-19T14:36:44;2.22;;;1.50;;
32812;SDS011;19162;48.254;11.454;2023-09-19T14:39:44;1.30;;;1.17;;
32812;SDS011;19162;48.254;11.454;2023-09-19T14:42:44;3.08;;;1.35;;
32812;SDS011;19162;48.254;11.454;2023-09-19T14:45:45;1.07;;;0.93;;
32812;SDS011;19162;48.254;11.454;2023-09-19T14:48:45;1.25;;;1.10;;
32812;SDS011;19162;48.254;11.454;2023-09-19T14:54:48;5.28;;;1.00;;
32812;SDS011;19162;48.254;11.454;2023-09-19T14:57:49;1.67;;;1.00;;
32812;SDS011;19162;48.254;11.454;2023-09-19T15:00:51;2.75;;;0.90;;
32812;SDS011;19162;48.254;11.454;2023-09-19T15:03:52;3.47;;;1.08;;
32812;SDS011;19162;48.254;11.454;2023-09-19T15:06:54;4.13;;;1.30;;
32812;SDS011;19162;48.254;11.454;2023-09-19T15:09:54;2.80;;;1.30;;
32812;SDS011;19162;48.254;11.454;2023-09-19T15:12:55;1.63;;;1.08;;
32812;SDS011;19162;48.254;11.454;2023-09-19T15:16:05;2.20;;;1.20;;
32812;SDS011;19162;48.254;11.454;2023-09-19T15:19:08;1.90;;;0.93;;
32812;SDS011;19162;48.254;11.454;2023-09-19T15:22:10;1.63;;;1.15;;
32812;SDS011;19162;48.254;11.454;2023-09-19T15:25:11;1.23;;;0.80;;
32812;SDS011;19162;48.254;11.454;2023-09-19T15:28:11;1.27;;;1.17;;
32812;SDS011;19162;48.254;11.454;2023-09-19T15:31:11;2.78;;;1.55;;
32812;SDS011;19162;48.254;11.454;2023-09-19T15:34:12;1.23;;;1.13;;
32812;SDS011;19162;48.254;11.454;2023-09-19T15:37:15;2.15;;;1.02;;
32812;SDS011;19162;48.254;11.454;2023-09-19T15:40:16;1.88;;;1.23;;
32812;SDS011;19162;48.254;11.454;2023-09-19T15:43:16;2.87;;;1.43;;
32812;SDS011;19162;48.254;11.454;2023-09-19T15:46:17;1.30;;;1.20;;
32812;SDS011;19162;48.254;11.454;2023-09-19T15:49:17;1.30;;;1.20;;
32812;SDS011;19162;48.254;11.454;2023-09-19T15:52:17;1.83;;;1.20;;
32812;SDS011;19162;48.254;11.454;2023-09-19T15:55:18;1.60;;;1.15;;
32812;SDS011;19162;48.254;11.454;2023-09-19T15:58:18;2.35;;;1.60;;
32812;SDS011;19162;48.254;11.454;2023-09-19T16:01:18;1.10;;;1.00;;
32812;SDS011;19162;48.254;11.454;2023-09-19T16:04:18;2.27;;;0.80;;
32812;SDS011;19162;48.254;11.454;2023-09-19T16:07:19;4.00;;;1.15;;
32812;SDS011;19162;48.254;11.454;2023-09-19T16:10:19;3.17;;;1.10;;
32812;SDS011;19162;48.254;11.454;2023-09-19T16:13:20;1.05;;;0.95;;
32812;SDS011;19162;48.254;11.454;2023-09-19T16:16:21;2.50;;;1.10;;
32812;SDS011;19162;48.254;11.454;2023-09-19T16:19:24;3.33;;;1.33;;
32812;SDS011;19162;48.254;11.454;2023-09-19T16:22:24;2.15;;;1.42;;
32812;SDS011;19162;48.254;11.454;2023-09-19T16:25:26;2.35;;;1.25;;
32812;SDS011;19162;48.254;11.454;2023-09-19T16:28:26;1.13;;;0.87;;
32812;SDS011;19162;48.254;11.454;2023-09-19T16:31:27;2.92;;;1.25;;
32812;SDS011;19162;48.254;11.454;2023-09-19T16:34:27;1.60;;;1.10;;
32812;SDS011;19162;48.254;11.454;2023-09-19T16:37:28;2.37;;;1.40;;
32812;SDS011;19162;48.254;11.454;2023-09-19T16:40:28;3.17;;;1.27;;
32812;SDS011;19162;48.254;11.454;2023-09-19T16:43:28;1.15;;;1.05;;
32812;SDS011;19162;48.254;11.454;2023-09-19T16:46:28;1.80;;;1.33;;
32812;SDS011;19162;48.254;11.454;2023-09-19T16:49:29;2.58;;;1.30;;
32812;SDS011;19162;48.254;11.454;2023-09-19T16:52:30;1.98;;;1.30;;
32812;SDS011;19162;48.254;11.454;2023-09-19T16:55:30;1.75;;;1.27;;
32812;SDS011;19162;48.254;11.454;2023-09-19T16:58:33;2.65;;;1.20;;
32812;SDS011;19162;48.254;11.454;2023-09-19T17:01:33;1.37;;;1.27;;
32812;SDS011;19162;48.254;11.454;2023-09-19T17:04:35;3.40;;;1.33;;
32812;SDS011;19162;48.254;11.454;2023-09-19T17:07:35;1.27;;;0.97;;
32812;SDS011;19162;48.254;11.454;2023-09-19T17:10:35;1.55;;;1.33;;
32812;SDS011;19162;48.254;11.454;2023-09-19T17:13:36;1.93;;;1.63;;
32812;SDS011;19162;48.254;11.454;2023-09-19T17:16:36;2.22;;;1.55;;
32812;SDS011;19162;48.254;11.454;2023-09-19T17:19:37;1.38;;;1.20;;
32812;SDS011;19162;48.254;11.454;2023-09-19T17:22:37;1.73;;;1.63;;
32812;SDS011;19162;48.254;11.454;2023-09-19T17:25:37;2.97;;;1.40;;
32812;SDS011;19162;48.254;11.454;2023-09-19T17:28:37;1.73;;;1.40;;
32812;SDS011;19162;48.254;11.454;2023-09-19T17:31:38;1.57;;;1.20;;
32812;SDS011;19162;48.254;11.454;2023-09-19T17:34:39;1.85;;;1.20;;
32812;SDS011;19162;48.254;11.454;2023-09-19T17:37:39;3.13;;;1.57;;
32812;SDS011;19162;48.254;11.454;2023-09-19T17:40:40;1.63;;;1.30;;
32812;SDS011;19162;48.254;11.454;2023-09-19T17:43:40;1.92;;;1.33;;
32812;SDS011;19162;48.254;11.454;2023-09-19T17:46:41;3.88;;;2.05;;
32812;SDS011;19162;48.254;11.454;2023-09-19T17:49:41;2.63;;;1.77;;
32812;SDS011;19162;48.254;11.454;2023-09-19T17:52:41;2.30;;;1.65;;
32812;SDS011;19162;48.254;11.454;2023-09-19T17:55:42;2.40;;;1.40;;
32812;SDS011;19162;48.254;11.454;2023-09-19T17:58:44;3.13;;;1.67;;
32812;SDS011;19162;48.254;11.454;2023-09-19T18:01:45;2.03;;;1.50;;
32812;SDS011;19162;48.254;11.454;2023-09-19T18:04:45;3.15;;;1.65;;
32812;SDS011;19162;48.254;11.454;2023-09-19T18:07:45;2.47;;;1.27;;
32812;SDS011;19162;48.254;11.454;2023-09-19T18:10:47;1.70;;;1.60;;
32812;SDS011;19162;48.254;11.454;2023-09-19T18:13:51;1.48;;;1.33;;
32812;SDS011;19162;48.254;11.454;2023-09-19T18:16:52;1.75;;;1.45;;
32812;SDS011;19162;48.254;11.454;2023-09-19T18:19:56;1.40;;;1.30;;
32812;SDS011;19162;48.254;11.454;2023-09-19T18:22:56;1.73;;;1.30;;
32812;SDS011;19162;48.254;11.454;2023-09-19T18:25:57;2.33;;;1.73;;
32812;SDS011;19162;48.254;11.454;2023-09-19T18:28:57;6.22;;;2.00;;
32812;SDS011;19162;48.254;11.454;2023-09-19T18:31:58;2.35;;;1.70;;
32812;SDS011;19162;48.254;11.454;2023-09-19T18:34:58;2.33;;;1.93;;
32812;SDS011;19162;48.254;11.454;2023-09-19T18:37:58;2.28;;;1.60;;
32812;SDS011;19162;48.254;11.454;2023-09-19T18:40:59;2.35;;;1.75;;